Terminal Aerodrome Forecast
Issued by NWS

Home | Current Version | Previous Version | Text Only | Print | Product List | Glossary On
Versions: 1 2 3 4 5 6 7 8 9 10 11 12
000
FTUS43 KPAH 172300
TAFOWB
TAF
KOWB 172329Z 1800/1824 18004KT P6SM SCT250
     FM180900 VRB03KT P6SM BKN045
     FM181600 01005KT P6SM SCT040=

USA.gov is the U.S. government's official web portal to all federal, state and local government web resources and services.